createdAt,value
2022-08-12T00:00:34.989Z,99016.34
2022-08-12T00:03:20.859Z,99013.78
2022-08-12T00:06:07.552Z,99014.97
2022-08-12T00:08:53.247Z,99012.84
2022-08-12T00:11:38.671Z,99013.97
2022-08-12T00:14:24.370Z,99016.09
2022-08-12T00:17:09.151Z,99026.47
2022-08-12T00:19:53.983Z,99018.31
2022-08-12T00:22:39.476Z,99024.19
2022-08-12T00:26:01.347Z,99020.91
2022-08-12T00:28:29.965Z,99025.84
2022-08-12T00:31:14.883Z,99023.28
2022-08-12T00:33:59.913Z,99024.00
2022-08-12T00:36:46.657Z,99027.63
2022-08-12T00:39:35.461Z,99022.81
2022-08-12T00:42:11.471Z,99015.34
2022-08-12T00:44:38.767Z,99022.56
2022-08-12T00:47:05.345Z,99022.19
2022-08-12T00:49:31.827Z,99015.66
2022-08-12T00:52:12.042Z,99016.84
2022-08-12T00:54:38.402Z,99024.69
2022-08-12T00:57:06.485Z,99019.03
2022-08-12T00:59:33.345Z,99021.91
2022-08-12T01:02:12.283Z,99021.41
2022-08-12T01:04:59.164Z,99019.59
2022-08-12T01:07:45.455Z,99015.41
2022-08-12T01:10:33.020Z,99011.69
2022-08-12T01:13:07.211Z,99017.13
2022-08-12T01:15:47.210Z,99010.53
2022-08-12T01:18:14.118Z,99013.09
2022-08-12T01:20:47.400Z,99011.00
2022-08-12T01:23:46.265Z,99009.56
2022-08-12T01:26:16.748Z,99009.84
2022-08-12T01:28:44.110Z,99012.31
2022-08-12T01:31:16.202Z,99014.38
2022-08-12T01:34:03.010Z,99010.59
2022-08-12T01:36:30.805Z,99005.06
2022-08-12T01:38:59.082Z,99005.19
2022-08-12T01:41:28.402Z,98995.34
2022-08-12T01:43:55.051Z,99000.28
2022-08-12T01:46:24.209Z,99000.22
2022-08-12T01:48:56.752Z,98993.31
2022-08-12T01:52:20.721Z,98988.50
2022-08-12T01:54:43.532Z,98986.06
2022-08-12T01:57:15.744Z,98982.25
2022-08-12T02:00:08.001Z,98990.38
2022-08-12T02:02:53.084Z,98988.19
2022-08-12T02:05:48.498Z,98986.47
2022-08-12T02:08:45.492Z,98984.16
2022-08-12T02:11:22.636Z,98983.88
2022-08-12T02:14:05.603Z,98986.91
2022-08-12T02:16:53.523Z,98980.59
2022-08-12T02:19:28.574Z,98979.25
2022-08-12T02:21:58.706Z,98980.66
2022-08-12T02:24:26.824Z,98967.75
2022-08-12T02:26:56.388Z,98972.13
2022-08-12T02:29:22.728Z,98973.16
2022-08-12T02:31:49.858Z,98974.22
2022-08-12T02:34:17.649Z,98969.09
2022-08-12T02:36:44.851Z,98967.75
2022-08-12T02:39:13.849Z,98962.56
2022-08-12T02:41:42.869Z,98962.16
2022-08-12T02:44:15.130Z,98963.72
2022-08-12T02:46:43.944Z,98962.56
2022-08-12T02:49:10.234Z,98956.13
2022-08-12T02:51:39.976Z,98963.56
2022-08-12T02:54:07.214Z,98957.88
2022-08-12T02:56:40.198Z,98954.00
2022-08-12T02:59:07.320Z,98951.00
2022-08-12T03:04:43.832Z,98960.19
2022-08-12T03:07:59.692Z,98961.56
2022-08-12T03:10:45.782Z,98953.00
2022-08-12T03:13:19.606Z,98963.16
2022-08-12T03:15:54.308Z,98961.41
2022-08-12T03:18:31.420Z,98959.25
2022-08-12T03:21:04.793Z,98959.94
2022-08-12T03:23:48.919Z,98966.16
2022-08-12T03:26:48.126Z,98966.34
2022-08-12T03:29:43.322Z,98975.06
2022-08-12T03:32:40.116Z,98970.91
2022-08-12T03:35:50.441Z,98967.75
2022-08-12T03:38:20.879Z,98972.91
2022-08-12T03:44:57.447Z,98983.38
2022-08-12T03:48:01.691Z,98972.75
2022-08-12T03:50:49.704Z,98977.75
2022-08-12T03:53:44.403Z,98977.44
2022-08-12T03:56:32.029Z,98989.34
2022-08-12T03:59:22.144Z,98986.25
2022-08-12T04:02:01.688Z,98994.34
2022-08-12T04:07:16.656Z,98997.19
2022-08-12T04:12:53.356Z,98996.03
2022-08-12T04:15:30.166Z,98993.94
2022-08-12T04:18:40.888Z,98993.81
2022-08-12T04:21:13.101Z,99003.69
2022-08-12T04:23:46.318Z,99001.13
2022-08-12T04:26:17.880Z,99004.84
2022-08-12T04:28:49.731Z,98990.97
2022-08-12T04:31:43.835Z,98997.91
2022-08-12T04:34:17.941Z,98988.09
2022-08-12T04:36:44.797Z,98996.25
2022-08-12T04:39:13.232Z,98998.50
2022-08-12T04:41:54.413Z,98991.34
2022-08-12T04:44:26.523Z,98986.22
2022-08-12T04:46:54.017Z,98990.03
2022-08-12T04:49:21.412Z,98997.47
2022-08-12T04:52:00.330Z,98986.28
2022-08-12T04:54:28.281Z,98990.84
2022-08-12T04:57:04.366Z,98997.91
2022-08-12T04:59:48.444Z,99005.94
2022-08-12T05:02:20.828Z,99002.03
2022-08-12T05:04:50.008Z,98999.22
2022-08-12T05:07:18.032Z,98998.97
2022-08-12T05:09:59.917Z,99003.47
2022-08-12T05:12:28.376Z,99003.56
2022-08-12T05:14:58.043Z,98999.25
2022-08-12T05:17:27.243Z,99005.16
2022-08-12T05:19:57.999Z,99010.34
2022-08-12T05:22:27.958Z,98999.34
2022-08-12T05:24:54.557Z,99003.03
2022-08-12T05:27:22.691Z,99000.47
2022-08-12T05:30:05.649Z,99003.34
2022-08-12T05:32:36.498Z,98998.16
2022-08-12T05:35:06.422Z,99004.97
2022-08-12T05:37:35.609Z,99007.44
2022-08-12T05:40:10.070Z,99005.88
2022-08-12T05:42:37.960Z,98998.13
2022-08-12T05:45:07.126Z,99009.59
2022-08-12T05:47:53.271Z,99003.47
2022-08-12T05:50:32.462Z,99006.22
2022-08-12T05:53:02.149Z,99009.16
2022-08-12T05:55:31.390Z,99013.13
2022-08-12T05:58:01.483Z,99015.47
2022-08-12T06:00:35.511Z,99014.63
2022-08-12T06:03:02.735Z,99015.00
2022-08-12T06:05:43.210Z,99010.91
2022-08-12T06:08:22.088Z,99019.00
2022-08-12T06:10:51.687Z,99021.84
2022-08-12T06:13:28.666Z,99020.53
2022-08-12T06:16:09.996Z,99035.75
2022-08-12T06:18:42.725Z,99029.72
2022-08-12T06:21:10.298Z,99026.69
2022-08-12T06:23:42.788Z,99029.16
2022-08-12T06:26:11.995Z,99037.13
2022-08-12T06:28:39.869Z,99031.44
2022-08-12T06:33:59.514Z,99042.03
2022-08-12T06:36:40.927Z,99024.44
2022-08-12T06:39:17.830Z,99032.75
2022-08-12T06:42:31.632Z,99036.44
2022-08-12T06:44:50.532Z,99037.19
2022-08-12T06:47:19.423Z,99036.31
2022-08-12T06:49:55.101Z,99031.91
2022-08-12T06:52:24.868Z,99028.63
2022-08-12T06:54:53.671Z,99039.25
2022-08-12T06:58:06.808Z,99037.38
2022-08-12T07:00:09.166Z,99043.84
2022-08-12T07:02:37.135Z,99040.94
2022-08-12T07:05:04.528Z,99036.53
2022-08-12T07:07:31.042Z,99039.38
2022-08-12T07:10:06.984Z,99031.44
2022-08-12T07:12:37.690Z,99031.78
2022-08-12T07:15:05.473Z,99042.56
2022-08-12T07:17:37.443Z,99048.06
2022-08-12T07:20:05.438Z,99041.81
2022-08-12T07:22:33.199Z,99046.53
2022-08-12T07:25:18.266Z,99052.31
2022-08-12T07:27:46.570Z,99048.72
2022-08-12T07:30:14.332Z,99049.13
2022-08-12T07:32:41.106Z,99045.28
2022-08-12T07:35:07.894Z,99046.88
2022-08-12T07:37:40.904Z,99047.22
2022-08-12T07:40:11.940Z,99044.28
2022-08-12T07:42:39.600Z,99055.19
2022-08-12T07:45:07.584Z,99051.56
2022-08-12T07:47:36.357Z,99054.56
2022-08-12T07:50:06.834Z,99047.84
2022-08-12T07:52:38.684Z,99051.75
2022-08-12T07:55:06.728Z,99053.75
2022-08-12T07:57:33.331Z,99052.03
2022-08-12T08:00:07.664Z,99046.00
2022-08-12T08:02:35.833Z,99044.38
2022-08-12T08:05:02.950Z,99050.66
2022-08-12T08:07:30.622Z,99042.88
2022-08-12T08:10:01.133Z,99047.44
2022-08-12T08:12:46.819Z,99046.72
2022-08-12T08:15:15.272Z,99041.91
2022-08-12T08:17:52.672Z,99058.00
2022-08-12T08:20:28.455Z,99051.44
2022-08-12T08:23:05.380Z,99050.16
2022-08-12T08:25:37.651Z,99053.56
2022-08-12T08:28:09.519Z,99050.22
2022-08-12T08:30:38.318Z,99046.81
2022-08-12T08:33:24.395Z,99041.38
2022-08-12T08:35:54.451Z,99052.91
2022-08-12T08:59:22.902Z,99043.41
2022-08-12T09:01:49.303Z,99032.81
2022-08-12T09:05:07.638Z,99030.50
2022-08-12T09:10:02.615Z,99036.00
2022-08-12T09:13:00.610Z,99034.09
2022-08-12T09:15:35.400Z,99032.59
2022-08-12T09:18:08.534Z,99031.75
2022-08-12T09:20:36.943Z,99035.91
2022-08-12T09:25:52.056Z,99026.09
2022-08-12T09:28:19.103Z,99034.22
2022-08-12T09:30:47.002Z,99015.94
2022-08-12T09:33:19.352Z,99012.16
2022-08-12T09:36:04.306Z,99023.28
2022-08-12T09:38:32.921Z,99023.09
2022-08-12T09:42:09.352Z,99016.53
2022-08-12T09:44:05.505Z,99020.56
2022-08-12T09:46:34.668Z,99014.13
2022-08-12T09:49:04.083Z,99020.94
2022-08-12T09:51:44.355Z,99019.84
2022-08-12T09:54:33.150Z,99011.09
2022-08-12T09:58:45.562Z,99010.75
2022-08-12T10:00:14.911Z,99004.69
2022-08-12T10:03:03.046Z,99014.84
2022-08-12T10:06:26.532Z,98999.47
2022-08-12T10:08:19.779Z,98991.88
2022-08-12T10:11:06.232Z,98987.97
2022-08-12T10:13:43.804Z,98992.00
2022-08-12T10:16:39.177Z,98981.41
2022-08-12T10:19:05.976Z,98982.44
2022-08-12T10:21:45.001Z,98982.44
2022-08-12T10:24:14.199Z,98973.38
2022-08-12T10:27:25.278Z,98982.78
2022-08-12T10:30:39.899Z,98980.56
2022-08-12T10:32:58.747Z,98981.22
2022-08-12T10:35:37.871Z,98973.66
2022-08-12T10:38:38.230Z,98968.34
2022-08-12T10:41:12.371Z,98967.72
2022-08-12T10:43:55.582Z,98957.91
2022-08-12T10:46:31.319Z,98954.13
2022-08-12T10:49:06.554Z,98959.91
2022-08-12T10:52:03.691Z,98949.31
2022-08-12T10:54:36.193Z,98961.78
2022-08-12T10:57:03.672Z,98950.94
2022-08-12T11:00:29.133Z,98956.56
2022-08-12T11:04:19.619Z,98940.19
2022-08-12T11:07:09.833Z,98939.56
2022-08-12T11:08:36.413Z,98921.78
2022-08-12T11:10:41.327Z,98935.00
2022-08-12T11:13:12.255Z,98924.81
2022-08-12T11:16:03.780Z,98929.84
2022-08-12T11:18:26.150Z,98918.84
2022-08-12T11:20:54.282Z,98925.91
2022-08-12T11:23:37.057Z,98907.91
2022-08-12T11:26:06.551Z,98922.66
2022-08-12T11:28:37.672Z,98916.72
2022-08-12T11:31:07.185Z,98926.53
2022-08-12T11:34:05.907Z,98921.13
2022-08-12T11:36:26.155Z,98915.91
2022-08-12T11:38:53.107Z,98917.97
2022-08-12T11:41:28.117Z,98920.03
2022-08-12T11:43:58.873Z,98923.38
2022-08-12T11:46:26.019Z,98911.50
2022-08-12T11:48:52.852Z,98912.81
2022-08-12T11:51:21.003Z,98911.47
2022-08-12T11:53:57.811Z,98914.88
2022-08-12T11:56:38.806Z,98910.75
2022-08-12T12:02:02.879Z,98911.59
2022-08-12T12:04:34.252Z,98897.00
2022-08-12T12:07:07.358Z,98897.44
2022-08-12T12:09:51.851Z,98902.94
2022-08-12T12:12:19.641Z,98900.72
2022-08-12T12:14:54.241Z,98895.97
2022-08-12T12:17:34.347Z,98893.91
2022-08-12T12:20:11.510Z,98886.88
2022-08-12T12:22:40.742Z,98891.13
2022-08-12T12:25:13.366Z,98891.19
2022-08-12T12:28:05.636Z,98887.00
2022-08-12T12:30:33.852Z,98893.38
2022-08-12T12:33:02.565Z,98886.13
2022-08-12T12:36:18.660Z,98889.59
2022-08-12T12:38:17.552Z,98885.69
2022-08-12T12:40:45.899Z,98881.09
2022-08-12T12:43:28.671Z,98874.78
2022-08-12T12:46:05.687Z,98852.94
2022-08-12T12:48:32.415Z,98867.06
2022-08-12T12:51:48.117Z,98872.06
2022-08-12T12:54:07.902Z,98874.13
2022-08-12T12:56:45.836Z,98875.31
2022-08-12T12:59:54.717Z,98875.69
2022-08-12T13:02:08.535Z,98865.25
2022-08-12T13:04:41.257Z,98853.06
2022-08-12T13:07:11.633Z,98847.09
2022-08-12T13:09:38.746Z,98851.41
2022-08-12T13:12:10.529Z,98849.25
2022-08-12T13:14:39.821Z,98849.81
2022-08-12T13:17:07.055Z,98847.56
2022-08-12T13:19:46.851Z,98852.94
2022-08-12T13:22:20.394Z,98856.72
2022-08-12T13:24:55.039Z,98848.28
2022-08-12T13:27:28.407Z,98838.56
2022-08-12T13:30:06.491Z,98835.56
2022-08-12T13:32:33.826Z,98835.56
2022-08-12T13:35:04.446Z,98829.91
2022-08-12T13:38:02.628Z,98839.50
2022-08-12T13:40:31.611Z,98820.88
2022-08-12T13:42:59.015Z,98831.06
2022-08-12T13:45:25.945Z,98821.66
2022-08-12T13:47:57.109Z,98820.19
2022-08-12T13:50:30.166Z,98819.63
2022-08-12T13:53:06.108Z,98823.94
2022-08-12T13:55:59.881Z,98810.34
2022-08-12T13:58:33.089Z,98810.06
2022-08-12T14:01:05.905Z,98803.94
2022-08-12T14:03:50.246Z,98805.84
2022-08-12T14:06:18.059Z,98799.03
2022-08-12T14:08:45.427Z,98791.75
2022-08-12T14:11:17.093Z,98795.69
2022-08-12T14:14:05.570Z,98793.94
2022-08-12T14:16:37.946Z,98793.50
2022-08-12T14:19:22.203Z,98792.53
2022-08-12T14:21:59.440Z,98793.22
2022-08-12T14:24:30.719Z,98783.66
2022-08-12T14:26:58.723Z,98786.28
2022-08-12T14:29:38.162Z,98785.88
2022-08-12T14:32:17.950Z,98785.13
2022-08-12T14:34:46.489Z,98790.78
2022-08-12T14:37:54.882Z,98785.81
2022-08-12T14:40:00.476Z,98776.13
2022-08-12T14:42:28.055Z,98776.84
2022-08-12T14:45:01.301Z,98776.69
2022-08-12T14:47:34.877Z,98765.81
2022-08-12T14:50:41.060Z,98766.69
2022-08-12T14:58:32.013Z,98768.25
2022-08-12T15:01:19.778Z,98768.03
2022-08-12T15:03:57.875Z,98765.72
2022-08-12T15:06:44.103Z,98771.19
2022-08-12T15:09:16.211Z,98766.56
2022-08-12T15:11:55.651Z,98765.13
2022-08-12T15:14:30.376Z,98768.56
2022-08-12T15:17:00.191Z,98767.00
2022-08-12T15:20:28.545Z,98760.22
2022-08-12T15:22:38.266Z,98754.56
2022-08-12T15:25:07.159Z,98747.44
2022-08-12T15:28:05.919Z,98751.06
2022-08-12T15:30:30.694Z,98750.72
2022-08-12T15:32:57.890Z,98747.97
2022-08-12T15:35:31.280Z,98749.03
2022-08-12T15:38:19.741Z,98748.16
2022-08-12T15:40:51.216Z,98755.53
2022-08-12T15:43:51.229Z,98744.16
2022-08-12T15:46:06.386Z,98741.63
2022-08-12T15:48:34.345Z,98743.22
2022-08-12T15:51:01.942Z,98739.88
2022-08-12T15:53:53.399Z,98742.72
2022-08-12T15:56:29.644Z,98742.47
2022-08-12T15:58:59.370Z,98735.47
2022-08-12T16:01:35.115Z,98732.22
2022-08-12T16:04:05.129Z,98729.56
2022-08-12T16:09:21.697Z,98734.63
2022-08-12T16:12:07.899Z,98729.84
2022-08-12T16:14:38.727Z,98731.59
2022-08-12T16:17:05.407Z,98731.75
2022-08-12T16:20:04.339Z,98730.16
2022-08-12T16:22:24.748Z,98722.63
2022-08-12T16:24:54.159Z,98721.31
2022-08-12T16:27:23.500Z,98718.69
2022-08-12T16:29:57.155Z,98711.38
2022-08-12T16:32:34.793Z,98715.84
2022-08-12T16:35:02.774Z,98714.69
2022-08-12T16:38:04.660Z,98712.78
2022-08-12T16:40:18.813Z,98715.84
2022-08-12T16:42:53.719Z,98717.41
2022-08-12T16:45:32.172Z,98711.38
2022-08-12T16:48:33.991Z,98705.97
2022-08-12T16:51:09.338Z,98707.00
2022-08-12T16:53:43.976Z,98705.00
2022-08-12T16:56:16.984Z,98712.94
2022-08-12T16:58:52.321Z,98700.31
2022-08-12T17:01:21.251Z,98711.03
2022-08-12T17:04:08.543Z,98709.88
2022-08-12T17:06:41.542Z,98705.09
2022-08-12T17:09:17.017Z,98698.31
2022-08-12T17:11:44.028Z,98692.69
2022-08-12T17:14:10.336Z,98690.69
2022-08-12T17:16:38.239Z,98693.03
2022-08-12T17:19:09.107Z,98683.91
2022-08-12T17:21:41.566Z,98685.88
2022-08-12T17:24:21.571Z,98682.75
2022-08-12T17:26:49.429Z,98681.88
2022-08-12T17:29:24.152Z,98680.59
2022-08-12T17:35:11.162Z,98682.63
2022-08-12T17:37:38.981Z,98683.06
2022-08-12T17:40:15.396Z,98686.50
2022-08-12T17:42:47.893Z,98691.47
2022-08-12T17:45:20.452Z,98690.09
2022-08-12T17:48:01.132Z,98686.47
2022-08-12T17:50:33.529Z,98698.66
2022-08-12T17:53:02.719Z,98692.44
2022-08-12T17:55:43.884Z,98698.81
2022-08-12T17:58:16.942Z,98704.00
2022-08-12T18:00:46.725Z,98701.13
2022-08-12T18:04:04.578Z,98705.44
2022-08-12T18:06:14.196Z,98705.28
2022-08-12T18:08:54.254Z,98707.88
2022-08-12T18:12:05.609Z,98713.94
2022-08-12T18:14:28.976Z,98709.81
2022-08-12T18:17:01.107Z,98713.53
2022-08-12T18:20:04.342Z,98710.75
2022-08-12T18:22:22.001Z,98707.69
2022-08-12T18:25:04.217Z,98716.84
2022-08-12T18:27:44.380Z,98715.72
2022-08-12T18:30:16.299Z,98721.72
2022-08-12T18:32:58.645Z,98724.28
2022-08-12T18:35:47.419Z,98718.38
2022-08-12T18:38:20.904Z,98730.88
2022-08-12T18:41:09.564Z,98733.31
2022-08-12T18:43:59.338Z,98737.75
2022-08-12T18:46:33.213Z,98736.44
2022-08-12T18:49:16.891Z,98742.69
2022-08-12T18:51:55.133Z,98742.69
2022-08-12T18:54:29.784Z,98747.19
2022-08-12T18:57:00.668Z,98746.00
2022-08-12T19:00:01.021Z,98745.78
2022-08-12T19:02:21.305Z,98750.16
2022-08-12T19:04:53.239Z,98750.06
2022-08-12T19:07:23.953Z,98753.28
2022-08-12T19:09:59.179Z,98747.44
2022-08-12T19:12:57.126Z,98754.38
2022-08-12T19:15:31.863Z,98754.06
2022-08-12T19:18:07.805Z,98755.81
2022-08-12T19:20:36.146Z,98769.28
2022-08-12T19:23:08.180Z,98763.06
2022-08-12T19:25:59.355Z,98757.91
2022-08-12T19:28:34.505Z,98764.41
2022-08-12T19:31:55.465Z,98757.03
2022-08-12T19:34:37.731Z,98757.94
2022-08-12T19:37:09.873Z,98764.19
2022-08-12T19:40:07.752Z,98763.59
2022-08-12T19:42:27.554Z,98763.34
2022-08-12T19:45:13.961Z,98767.00
2022-08-12T19:47:47.170Z,98764.31
2022-08-12T19:50:20.323Z,98752.97
2022-08-12T19:52:50.928Z,98757.66
2022-08-12T19:55:21.549Z,98758.81
2022-08-12T19:58:02.409Z,98752.53
2022-08-12T20:00:29.927Z,98751.03
2022-08-12T20:03:02.990Z,98759.69
2022-08-12T20:06:06.334Z,98765.03
2022-08-12T20:08:31.416Z,98766.34
2022-08-12T20:12:11.726Z,98763.59
2022-08-12T20:14:00.634Z,98766.88
2022-08-12T20:16:51.081Z,98771.72
2022-08-12T20:19:14.477Z,98765.00
2022-08-12T20:21:55.523Z,98763.16
2022-08-12T20:24:22.674Z,98765.97
2022-08-12T20:26:57.822Z,98770.47
2022-08-12T20:29:26.219Z,98765.75
2022-08-12T20:32:06.329Z,98771.63
2022-08-12T20:34:39.213Z,98764.38
2022-08-12T20:37:19.191Z,98768.31
2022-08-12T20:41:02.166Z,98766.06
2022-08-12T20:50:27.497Z,98754.88
2022-08-12T20:52:54.361Z,98762.22
2022-08-12T20:55:21.227Z,98752.38
2022-08-12T21:00:29.597Z,98758.28
2022-08-12T21:03:18.890Z,98757.91
2022-08-12T21:06:12.187Z,98763.34
2022-08-12T21:08:40.496Z,98763.00
2022-08-12T21:11:09.742Z,98764.44
2022-08-12T21:13:42.454Z,98760.28
2022-08-12T21:16:09.753Z,98767.69
2022-08-12T21:18:38.125Z,98767.81
2022-08-12T21:21:22.929Z,98766.66
2022-08-12T21:23:56.203Z,98762.81
2022-08-12T21:26:23.888Z,98757.28
2022-08-12T21:28:58.190Z,98765.63
2022-08-12T21:32:39.929Z,98762.28
2022-08-12T21:34:29.280Z,98762.88
2022-08-12T21:37:13.148Z,98764.47
2022-08-12T21:39:52.233Z,98774.34
2022-08-12T21:42:26.305Z,98761.84
2022-08-12T21:45:48.036Z,98768.59
2022-08-12T21:47:42.313Z,98770.63
2022-08-12T21:50:13.797Z,98770.22
2022-08-12T21:52:49.144Z,98760.69
2022-08-12T21:55:20.424Z,98762.44
2022-08-12T21:58:02.633Z,98764.28
2022-08-12T22:00:34.992Z,98769.84
2022-08-12T22:06:30.871Z,98765.88
2022-08-12T22:09:08.845Z,98764.72
2022-08-12T22:11:59.439Z,98774.28
2022-08-12T22:14:33.640Z,98775.06
2022-08-12T22:17:01.452Z,98772.28
2022-08-12T22:19:33.605Z,98776.34
2022-08-12T22:22:04.919Z,98772.94
2022-08-12T22:24:31.905Z,98769.72
2022-08-12T22:27:18.083Z,98769.25
2022-08-12T22:30:08.016Z,98775.34
2022-08-12T22:32:46.924Z,98776.81
2022-08-12T22:35:47.218Z,98773.50
2022-08-12T22:38:29.158Z,98779.00
2022-08-12T22:41:01.675Z,98776.41
2022-08-12T22:43:59.661Z,98776.41
2022-08-12T22:47:06.724Z,98778.81
2022-08-12T22:49:36.770Z,98767.53
2022-08-12T22:52:18.434Z,98767.59
2022-08-12T22:55:03.693Z,98764.31
2022-08-12T22:57:53.873Z,98767.56
2022-08-12T23:00:27.828Z,98759.84
2022-08-12T23:03:27.371Z,98769.81
2022-08-12T23:06:10.369Z,98762.88
2022-08-12T23:08:39.148Z,98759.88
2022-08-12T23:11:09.002Z,98755.47
2022-08-12T23:13:55.920Z,98762.94
2022-08-12T23:16:31.270Z,98756.69
2022-08-12T23:19:10.520Z,98760.69
2022-08-12T23:22:04.977Z,98754.06
2022-08-12T23:24:55.947Z,98753.03
2022-08-12T23:27:59.825Z,98748.66
2022-08-12T23:30:31.621Z,98752.69
2022-08-12T23:33:13.272Z,98753.78
2022-08-12T23:35:59.422Z,98750.84
2022-08-12T23:38:31.281Z,98748.97
2022-08-12T23:41:01.683Z,98749.72
2022-08-12T23:43:39.394Z,98743.56
2022-08-12T23:46:11.719Z,98747.59
2022-08-12T23:48:38.403Z,98753.50
2022-08-12T23:51:23.762Z,98756.06
2022-08-12T23:53:56.542Z,98751.66
2022-08-12T23:56:27.085Z,98747.25
2022-08-12T23:58:57.506Z,98737.41
